21kousinmaru — JD2168 — position and weather

sailwx.info

Track history (hours):
 
Tides and Currents Weather Stations Pressure Air Temp Water Temp Dewpoint Dewpoint Depression Visibility Wind Speed Wind Dir Waves Ship Positions

21kousinmaru

Last reported at 2014-Jul-31 07:33 UTC. Time now 2014-Aug-01 01:43 UTC.
Position N 35°03' E 139°33'.

Length 68 m; draft 4.5 m.

MMSI: 431501835.

Date/timePositionNaut miles runAvg speedWind from/ knotsBaromVisibWave heightAir tempDewpointWater temp
2014-Jul-31 07:33N 35°03' E 139°33'1312.5
2014-Jul-31 06:33N 35°10' E 139°45'1111.4
2014-Jul-31 05:33N 35°22' E 139°42'1211.9
2014-Jul-31 04:33N 35°30' E 139°53'9 9.0
2014-Jul-31 03:33N 35°32' E 140°03'0 0.0
2014-Jul-31 02:33N 35°32' E 140°03'0 0.0
2014-Jul-31 01:30N 35°32' E 140°03'0 0.0
2014-Jul-31 00:33N 35°32' E 140°03'1 1.1
2014-Jul-30 23:33N 35°32' E 140°02'7 6.6
2014-Jul-30 22:31N 35°28' E 139°55'0 0.0
2014-Jul-30 21:31N 35°29' E 139°55'0 0.0
2014-Jul-30 20:31N 35°29' E 139°55'0 0.0
2014-Jul-30 19:28N 35°29' E 139°55'0 0.0
2014-Jul-30 18:31N 35°29' E 139°55'0 0.0
2014-Jul-30 17:28N 35°29' E 139°55'0 0.0
2014-Jul-30 16:28N 35°29' E 139°55'0 0.1
2014-Jul-30 15:31N 35°29' E 139°55'0 0.0
2014-Jul-30 14:31N 35°29' E 139°55'0 0.0
2014-Jul-30 13:28N 35°29' E 139°55'0 0.1
2014-Jul-30 12:31N 35°29' E 139°55'0 0.0
2014-Jul-30 11:28N 35°29' E 139°55'8 8.6
2014-Jul-30 10:33N 35°25' E 139°47'1212.0
2014-Jul-30 09:33N 35°13' E 139°47'1313.3
2014-Jul-30 08:33N 35°01' E 139°39'  
2014-Jul-27 11:33N 35°04' E 139°34'1312.6
2014-Jul-27 10:33N 35°12' E 139°46'1212.1
2014-Jul-27 09:33N 35°24' E 139°43'8 7.7
2014-Jul-27 08:33N 35°31' E 139°46'0 0.0
2014-Jul-27 07:33N 35°31' E 139°46'0 0.0
2014-Jul-27 06:33N 35°31' E 139°46'0 0.0
2014-Jul-27 05:33N 35°31' E 139°46'0 0.0
2014-Jul-27 04:31N 35°31' E 139°46'5 4.6
2014-Jul-27 03:32N 35°31' E 139°52'5 4.7
2014-Jul-27 02:34N 35°31' E 139°46'1 0.5
2014-Jul-27 01:31N 35°31' E 139°46'0 0.0
2014-Jul-27 00:31N 35°31' E 139°46'0 0.0
2014-Jul-26 23:31N 35°31' E 139°46'0 0.0
2014-Jul-26 22:22N 35°31' E 139°46'3 3.7
2014-Jul-26 21:33N 35°30' E 139°49'1 0.7
2014-Jul-26 20:33N 35°30' E 139°50'0 0.0
2014-Jul-26 19:33N 35°30' E 139°50'0 0.0
2014-Jul-26 18:33N 35°30' E 139°50'0 0.0
2014-Jul-26 17:30N 35°30' E 139°50'0 0.0
2014-Jul-26 16:30N 35°30' E 139°50'0 0.0
2014-Jul-26 15:33N 35°30' E 139°50'0 0.0
2014-Jul-26 14:33N 35°30' E 139°50'0 0.0
2014-Jul-26 13:30N 35°30' E 139°50'0 0.0
2014-Jul-26 12:33N 35°30' E 139°50'0 0.0
2014-Jul-26 11:30N 35°30' E 139°50'0 0.0
2014-Jul-26 10:27N 35°30' E 139°50'0 0.0
2014-Jul-26 09:30N 35°30' E 139°50'0 0.0
2014-Jul-26 08:33N 35°30' E 139°50'0 0.0
2014-Jul-26 07:27N 35°30' E 139°50'8 9.3
2014-Jul-26 06:33N 35°23' E 139°46'1212.3
2014-Jul-26 05:34N 35°11' E 139°47'1312.6
2014-Jul-26 04:33N 35°00' E 139°38'23210.9
2014-Jul-25 07:18N 34°08' E 135°04'4 0.2
2014-Jul-24 10:32N 34°08' E 134°60'231 4.7
2014-Jul-22 09:19N 33°52' E 130°22'1012.4
2014-Jul-22 08:32N 33°44' E 130°17'9 9.5
2014-Jul-22 07:32N 33°37' E 130°25'0 0.0
2014-Jul-22 06:32N 33°37' E 130°25'0 0.0
2014-Jul-22 05:33N 33°37' E 130°25'1 0.6
2014-Jul-22 04:32N 33°37' E 130°24'  
Track history (hours):
 
Tides and Currents Weather Stations Pressure Air Temp Water Temp Dewpoint Dewpoint Depression Visibility Wind Speed Wind Dir Waves Ship Positions

21kousinmaru

Last reported at 2014-Jul-31 07:33 UTC. Time now 2014-Aug-01 01:43 UTC.
Position N 35°03' E 139°33'.

Length 68 m; draft 4.5 m.

MMSI: 431501835.

Date/timePositionNaut miles runAvg speedWind from/ knotsBaromVisibWave heightAir tempDewpointWater temp
2014-Jul-31 07:33N 35°03' E 139°33'1312.5
2014-Jul-31 06:33N 35°10' E 139°45'1111.4
2014-Jul-31 05:33N 35°22' E 139°42'1211.9
2014-Jul-31 04:33N 35°30' E 139°53'9 9.0
2014-Jul-31 03:33N 35°32' E 140°03'0 0.0
2014-Jul-31 02:33N 35°32' E 140°03'0 0.0
2014-Jul-31 01:30N 35°32' E 140°03'0 0.0
2014-Jul-31 00:33N 35°32' E 140°03'1 1.1
2014-Jul-30 23:33N 35°32' E 140°02'7 6.6
2014-Jul-30 22:31N 35°28' E 139°55'0 0.0
2014-Jul-30 21:31N 35°29' E 139°55'0 0.0
2014-Jul-30 20:31N 35°29' E 139°55'0 0.0
2014-Jul-30 19:28N 35°29' E 139°55'0 0.0
2014-Jul-30 18:31N 35°29' E 139°55'0 0.0
2014-Jul-30 17:28N 35°29' E 139°55'0 0.0
2014-Jul-30 16:28N 35°29' E 139°55'0 0.1
2014-Jul-30 15:31N 35°29' E 139°55'0 0.0
2014-Jul-30 14:31N 35°29' E 139°55'0 0.0
2014-Jul-30 13:28N 35°29' E 139°55'0 0.1
2014-Jul-30 12:31N 35°29' E 139°55'0 0.0
2014-Jul-30 11:28N 35°29' E 139°55'8 8.6
2014-Jul-30 10:33N 35°25' E 139°47'1212.0
2014-Jul-30 09:33N 35°13' E 139°47'1313.3
2014-Jul-30 08:33N 35°01' E 139°39'  
2014-Jul-27 11:33N 35°04' E 139°34'1312.6
2014-Jul-27 10:33N 35°12' E 139°46'1212.1
2014-Jul-27 09:33N 35°24' E 139°43'8 7.7
2014-Jul-27 08:33N 35°31' E 139°46'0 0.0
2014-Jul-27 07:33N 35°31' E 139°46'0 0.0
2014-Jul-27 06:33N 35°31' E 139°46'0 0.0
2014-Jul-27 05:33N 35°31' E 139°46'0 0.0
2014-Jul-27 04:31N 35°31' E 139°46'5 4.6
2014-Jul-27 03:32N 35°31' E 139°52'5 4.7
2014-Jul-27 02:34N 35°31' E 139°46'1 0.5
2014-Jul-27 01:31N 35°31' E 139°46'0 0.0
2014-Jul-27 00:31N 35°31' E 139°46'0 0.0
2014-Jul-26 23:31N 35°31' E 139°46'0 0.0
2014-Jul-26 22:22N 35°31' E 139°46'3 3.7
2014-Jul-26 21:33N 35°30' E 139°49'1 0.7
2014-Jul-26 20:33N 35°30' E 139°50'0 0.0
2014-Jul-26 19:33N 35°30' E 139°50'0 0.0
2014-Jul-26 18:33N 35°30' E 139°50'0 0.0
2014-Jul-26 17:30N 35°30' E 139°50'0 0.0
2014-Jul-26 16:30N 35°30' E 139°50'0 0.0
2014-Jul-26 15:33N 35°30' E 139°50'0 0.0
2014-Jul-26 14:33N 35°30' E 139°50'0 0.0
2014-Jul-26 13:30N 35°30' E 139°50'0 0.0
2014-Jul-26 12:33N 35°30' E 139°50'0 0.0
2014-Jul-26 11:30N 35°30' E 139°50'0 0.0
2014-Jul-26 10:27N 35°30' E 139°50'0 0.0
2014-Jul-26 09:30N 35°30' E 139°50'0 0.0
2014-Jul-26 08:33N 35°30' E 139°50'0 0.0
2014-Jul-26 07:27N 35°30' E 139°50'8 9.3
2014-Jul-26 06:33N 35°23' E 139°46'1212.3
2014-Jul-26 05:34N 35°11' E 139°47'1312.6
2014-Jul-26 04:33N 35°00' E 139°38'23210.9
2014-Jul-25 07:18N 34°08' E 135°04'4 0.2
2014-Jul-24 10:32N 34°08' E 134°60'231 4.7
2014-Jul-22 09:19N 33°52' E 130°22'1012.4
2014-Jul-22 08:32N 33°44' E 130°17'9 9.5
2014-Jul-22 07:32N 33°37' E 130°25'0 0.0
2014-Jul-22 06:32N 33°37' E 130°25'0 0.0
2014-Jul-22 05:33N 33°37' E 130°25'1 0.6
2014-Jul-22 04:32N 33°37' E 130°24'  

Dump ship's entire track history